Time;durP1;ratioP1;P1;durP2;ratioP2;P2;SDS_P1;SDS_P2;PMS_P1;PMS_P2;Temp;Humidity;BMP_temperature;BMP_pressure;BME280_temperature;BME280_humidity;BME280_pressure;Samples;Min_cycle;Max_cycle;Signal;HPM_P1;HPM_P2
2023/07/03 00:01:41;;;;;;;;;;;15.80;99.90;;;;;;5017083;28;19930;-92
2023/07/03 00:04:10;;;;;;;;;;;15.80;99.90;;;;;;5000036;28;19930;-90
2023/07/03 00:06:37;;;;;;;;;;;15.90;99.90;;;;;;4981898;28;19972;-91
2023/07/03 00:09:02;;;;;;;;;;;15.90;99.90;;;;;;5002321;28;20531;-89
2023/07/03 00:11:28;;;;;;;;;;;15.80;99.90;;;;;;5001313;28;19992;-89
2023/07/03 00:13:54;;;;;;;;;;;15.90;99.90;;;;;;5001715;28;19964;-90
2023/07/03 00:16:19;;;;;;;;;;;15.80;99.90;;;;;;5016914;28;19953;-89
2023/07/03 00:18:48;;;;;;;;;;;15.90;99.90;;;;;;5018324;28;19929;-90
2023/07/03 00:21:14;;;;;;;;;;;15.80;99.90;;;;;;5017412;28;19944;-90
2023/07/03 00:23:39;;;;;;;;;;;15.90;99.90;;;;;;4983073;28;19930;-91
2023/07/03 00:26:05;;;;;;;;;;;15.80;99.90;;;;;;5000692;28;20012;-89
2023/07/03 00:28:30;;;;;;;;;;;15.80;99.90;;;;;;5000382;28;19925;-91
2023/07/03 00:30:56;;;;;;;;;;;15.80;99.90;;;;;;4981293;28;19934;-92
2023/07/03 00:33:21;;;;;;;;;;;15.80;99.90;;;;;;4982556;28;19929;-89
2023/07/03 00:35:47;;;;;;;;;;;15.80;99.90;;;;;;4993919;28;20396;-89
2023/07/03 00:38:13;;;;;;;;;;;15.80;99.90;;;;;;4984836;28;20017;-89
2023/07/03 00:40:38;;;;;;;;;;;15.80;99.90;;;;;;5000670;28;19952;-89
2023/07/03 00:43:04;;;;;;;;;;;15.80;99.90;;;;;;5001388;28;19971;-90
2023/07/03 00:45:30;;;;;;;;;;;15.80;99.90;;;;;;4983433;28;19934;-88
2023/07/03 00:47:57;;;;;;;;;;;15.80;99.90;;;;;;5016800;28;19965;-88
2023/07/03 00:50:22;;;;;;;;;;;15.80;99.90;;;;;;5016955;28;19998;-89
2023/07/03 00:52:53;;;;;;;;;;;15.80;99.90;;;;;;4999343;28;20420;-87
2023/07/03 00:55:19;;;;;;;;;;;15.80;99.90;;;;;;5020512;28;19931;-87
2023/07/03 00:57:45;;;;;;;;;;;15.80;99.90;;;;;;4997803;28;19952;-90
2023/07/03 01:00:10;;;;;;;;;;;15.80;99.90;;;;;;5001381;28;19929;-89
2023/07/03 01:02:44;;;;;;;;;;;15.80;99.90;;;;;;5016455;28;19930;-87
2023/07/03 01:05:14;;;;;;;;;;;15.80;99.90;;;;;;5000544;28;19951;-88
2023/07/03 01:07:40;;;;;;;;;;;15.90;99.90;;;;;;4993065;28;19957;-87
2023/07/03 01:10:11;;;;;;;;;;;15.90;99.90;;;;;;4999147;28;19926;-87
2023/07/03 01:12:38;;;;;;;;;;;15.90;99.90;;;;;;5016882;28;19925;-88
2023/07/03 01:15:06;;;;;;;;;;;15.90;99.90;;;;;;4999629;28;19929;-89
2023/07/03 01:17:31;;;;;;;;;;;15.90;99.90;;;;;;5017734;28;19965;-88
2023/07/03 01:19:59;;;;;;;;;;;15.90;99.90;;;;;;5015688;28;19936;-86
2023/07/03 01:22:57;;;;;;;;;;;15.90;99.90;;;;;;5001035;28;19981;-87
2023/07/03 01:25:24;;;;;;;;;;;15.90;99.90;;;;;;4997292;28;20399;-86
2023/07/03 01:27:51;;;;;;;;;;;15.90;99.90;;;;;;4995883;28;19969;-86
2023/07/03 01:30:18;;;;;;;;;;;15.90;99.90;;;;;;4996014;28;19935;-85
2023/07/03 01:32:46;;;;;;;;;;;16.00;99.90;;;;;;4999454;28;19950;-86
2023/07/03 01:35:12;;;;;;;;;;;16.00;99.90;;;;;;5015427;28;19948;-85
2023/07/03 01:37:43;;;;;;;;;;;16.00;99.90;;;;;;4999354;28;20012;-86
2023/07/03 01:40:10;;;;;;;;;;;16.00;99.90;;;;;;5015033;28;19925;-86
2023/07/03 01:42:38;;;;;;;;;;;16.00;99.90;;;;;;4999342;28;20329;-86
2023/07/03 01:45:04;;;;;;;;;;;16.00;99.90;;;;;;5015903;28;20009;-85
2023/07/03 01:47:30;;;;;;;;;;;16.00;99.90;;;;;;5000463;28;20539;-86
2023/07/03 01:49:56;;;;;;;;;;;16.00;99.90;;;;;;4978961;28;19930;-86
2023/07/03 01:52:27;;;;;;;;;;;16.00;99.90;;;;;;4998323;28;19952;-89
2023/07/03 01:54:56;;;;;;;;;;;16.00;99.90;;;;;;4992147;28;19937;-87
2023/07/03 01:57:27;;;;;;;;;;;16.00;99.90;;;;;;4996546;28;19926;-87
2023/07/03 01:59:52;;;;;;;;;;;16.00;99.90;;;;;;4997416;28;19926;-86
2023/07/03 02:02:22;;;;;;;;;;;16.00;99.90;;;;;;4994251;28;19993;-89
2023/07/03 02:05:07;;;;;;;;;;;16.00;99.90;;;;;;5002053;28;19975;-87
2023/07/03 02:07:34;;;;;;;;;;;16.00;99.90;;;;;;5002711;28;19929;-88
2023/07/03 02:10:00;;;;;;;;;;;16.00;99.90;;;;;;4996023;28;19925;-87
2023/07/03 02:12:26;;;;;;;;;;;16.10;99.90;;;;;;4982585;28;19949;-88
2023/07/03 02:14:51;;;;;;;;;;;16.00;99.90;;;;;;4997961;28;19948;-88
2023/07/03 02:17:17;;;;;;;;;;;16.00;99.90;;;;;;5001626;28;19937;-88
2023/07/03 02:19:42;;;;;;;;;;;16.00;99.90;;;;;;4999157;28;19945;-87
2023/07/03 02:22:08;;;;;;;;;;;16.00;99.90;;;;;;4999304;28;19925;-88
2023/07/03 02:24:34;;;;;;;;;;;16.00;99.90;;;;;;4967600;28;19968;-86
2023/07/03 02:26:59;;;;;;;;;;;16.00;99.90;;;;;;5000548;28;19930;-86
2023/07/03 02:29:25;;;;;;;;;;;16.00;99.90;;;;;;4961238;28;19980;-86
2023/07/03 02:31:50;;;;;;;;;;;16.00;99.90;;;;;;4999195;28;19996;-86
2023/07/03 02:34:16;;;;;;;;;;;16.00;99.90;;;;;;4967766;28;19926;-87
2023/07/03 02:36:42;;;;;;;;;;;16.00;99.90;;;;;;4983239;28;19932;-85
2023/07/03 02:39:09;;;;;;;;;;;16.00;99.90;;;;;;4982590;28;19926;-85
2023/07/03 02:41:34;;;;;;;;;;;16.00;99.90;;;;;;4998987;28;19929;-85
2023/07/03 02:44:00;;;;;;;;;;;15.90;99.90;;;;;;4983766;28;19936;-88
2023/07/03 02:46:28;;;;;;;;;;;15.90;99.90;;;;;;4997051;28;20161;-88
2023/07/03 02:48:54;;;;;;;;;;;15.80;99.90;;;;;;4982272;28;19926;-87
2023/07/03 02:51:19;;;;;;;;;;;15.80;99.90;;;;;;4998585;28;19997;-87
2023/07/03 02:53:45;;;;;;;;;;;15.80;99.90;;;;;;4982920;28;19932;-89
2023/07/03 02:56:11;;;;;;;;;;;15.80;99.90;;;;;;4982696;28;20449;-87
2023/07/03 02:58:36;;;;;;;;;;;15.80;99.90;;;;;;4954635;28;19930;-87
2023/07/03 03:01:02;;;;;;;;;;;15.80;99.90;;;;;;4995875;28;19930;-86
2023/07/03 03:03:28;;;;;;;;;;;15.80;99.90;;;;;;4993878;28;19926;-86
2023/07/03 03:05:55;;;;;;;;;;;15.70;99.90;;;;;;4980365;28;19948;-87
2023/07/03 03:08:21;;;;;;;;;;;15.70;99.90;;;;;;4970369;28;19926;-87
2023/07/03 03:10:47;;;;;;;;;;;15.70;99.90;;;;;;4997147;28;20309;-86
2023/07/03 03:13:13;;;;;;;;;;;15.70;99.90;;;;;;4998550;28;19937;-87
2023/07/03 03:15:38;;;;;;;;;;;15.70;99.90;;;;;;4989714;28;19929;-88
2023/07/03 03:18:04;;;;;;;;;;;15.70;99.90;;;;;;4999520;28;19925;-87
2023/07/03 03:20:30;;;;;;;;;;;15.60;99.90;;;;;;4982960;28;19965;-88
2023/07/03 03:22:56;;;;;;;;;;;15.60;99.90;;;;;;4963640;28;19926;-86
2023/07/03 03:25:21;;;;;;;;;;;15.50;99.90;;;;;;4982803;28;19933;-86
2023/07/03 03:27:47;;;;;;;;;;;15.50;99.90;;;;;;4982468;28;19926;-90
2023/07/03 03:30:12;;;;;;;;;;;15.50;99.90;;;;;;4964109;28;19934;-88
2023/07/03 03:32:38;;;;;;;;;;;15.40;99.90;;;;;;4953907;28;20386;-87
2023/07/03 03:35:05;;;;;;;;;;;15.40;99.90;;;;;;4963079;28;19985;-87
2023/07/03 03:37:31;;;;;;;;;;;15.30;99.90;;;;;;4982820;28;19955;-88
2023/07/03 03:39:56;;;;;;;;;;;15.30;99.90;;;;;;4966612;28;19926;-86
2023/07/03 03:42:22;;;;;;;;;;;15.30;99.90;;;;;;4981194;28;19930;-87
2023/07/03 03:44:48;;;;;;;;;;;15.30;99.90;;;;;;4966115;28;19926;-87
2023/07/03 03:47:13;;;;;;;;;;;15.20;99.90;;;;;;4982787;28;20404;-87
2023/07/03 03:49:39;;;;;;;;;;;15.10;99.90;;;;;;4963027;28;19946;-87
2023/07/03 03:52:05;;;;;;;;;;;15.10;99.90;;;;;;4994392;28;20424;-88
2023/07/03 03:54:31;;;;;;;;;;;15.00;99.90;;;;;;4997297;28;19933;-87
2023/07/03 03:56:56;;;;;;;;;;;15.00;99.90;;;;;;5009201;28;19969;-87
2023/07/03 03:59:22;;;;;;;;;;;14.90;99.90;;;;;;4982140;28;19972;-88
2023/07/03 04:01:48;;;;;;;;;;;14.90;99.90;;;;;;4998519;28;19926;-88
2023/07/03 04:04:14;;;;;;;;;;;14.80;99.90;;;;;;4995512;28;19926;-88
2023/07/03 04:06:39;;;;;;;;;;;14.80;99.90;;;;;;5003176;28;19977;-88
2023/07/03 04:09:05;;;;;;;;;;;14.80;99.90;;;;;;4990320;28;19937;-89
2023/07/03 04:11:31;;;;;;;;;;;14.80;99.90;;;;;;4996925;28;20011;-88
2023/07/03 04:13:56;;;;;;;;;;;14.80;99.90;;;;;;4964900;28;19926;-88
2023/07/03 04:16:23;;;;;;;;;;;14.70;99.90;;;;;;4981803;28;19929;-88
2023/07/03 04:18:49;;;;;;;;;;;14.70;99.90;;;;;;5006129;28;20016;-88
2023/07/03 04:21:14;;;;;;;;;;;14.70;99.90;;;;;;5005404;28;19925;-88
2023/07/03 04:23:40;;;;;;;;;;;14.70;99.90;;;;;;4980762;28;19933;-88
2023/07/03 04:26:05;;;;;;;;;;;14.70;99.90;;;;;;5014297;28;19925;-89
2023/07/03 04:28:31;;;;;;;;;;;14.70;99.90;;;;;;4981362;28;19985;-88
2023/07/03 04:30:57;;;;;;;;;;;14.70;99.90;;;;;;4998619;28;19929;-88
2023/07/03 04:33:22;;;;;;;;;;;14.70;99.90;;;;;;4997209;28;19926;-87
2023/07/03 04:35:48;;;;;;;;;;;14.70;99.90;;;;;;4996475;28;19972;-88
2023/07/03 04:38:17;;;;;;;;;;;14.80;99.90;;;;;;4980867;28;20305;-88
2023/07/03 04:40:43;;;;;;;;;;;14.80;99.90;;;;;;4997377;28;20305;-88
2023/07/03 04:43:09;;;;;;;;;;;14.80;99.90;;;;;;4982199;28;19930;-88
2023/07/03 04:45:40;;;;;;;;;;;14.90;99.90;;;;;;4994945;28;20132;-88
2023/07/03 04:48:06;;;;;;;;;;;15.00;99.90;;;;;;4981716;28;19925;-89
2023/07/03 04:50:32;;;;;;;;;;;15.00;99.90;;;;;;4968696;28;19935;-88
2023/07/03 04:52:58;;;;;;;;;;;15.10;99.90;;;;;;4972504;28;19926;-88
2023/07/03 04:55:24;;;;;;;;;;;15.10;99.90;;;;;;4962243;28;19984;-88
2023/07/03 04:57:49;;;;;;;;;;;15.10;99.90;;;;;;4981107;28;19934;-88
2023/07/03 05:00:16;;;;;;;;;;;15.10;99.90;;;;;;4965994;28;19965;-89
2023/07/03 05:02:48;;;;;;;;;;;15.20;99.90;;;;;;4979477;28;20353;-88
2023/07/03 05:05:15;;;;;;;;;;;15.20;99.90;;;;;;4978922;28;19940;-88
2023/07/03 05:07:41;;;;;;;;;;;15.20;99.90;;;;;;4996159;28;19926;-87
2023/07/03 05:10:08;;;;;;;;;;;15.40;99.90;;;;;;4975280;28;19948;-89
2023/07/03 05:12:33;;;;;;;;;;;15.50;99.90;;;;;;4997640;28;19944;-88
2023/07/03 05:14:59;;;;;;;;;;;15.70;99.90;;;;;;4977167;28;19926;-89
2023/07/03 05:17:25;;;;;;;;;;;16.00;99.90;;;;;;4980540;28;20293;-87
2023/07/03 05:19:50;;;;;;;;;;;16.30;99.90;;;;;;4979894;28;19976;-88
2023/07/03 05:22:16;;;;;;;;;;;16.70;99.90;;;;;;4989962;28;19929;-88
2023/07/03 05:24:41;;;;;;;;;;;17.10;99.90;;;;;;4968316;28;19926;-87
2023/07/03 05:27:07;;;;;;;;;;;17.60;99.90;;;;;;4960855;28;19942;-90
2023/07/03 05:29:33;;;;;;;;;;;18.20;99.90;;;;;;4993613;28;19933;-87
2023/07/03 05:32:00;;;;;;;;;;;18.70;99.90;;;;;;5000745;28;19925;-89
2023/07/03 05:34:29;;;;;;;;;;;19.20;99.90;;;;;;4980568;28;19926;-87
2023/07/03 05:36:56;;;;;;;;;;;19.50;99.90;;;;;;4994619;28;19925;-86
2023/07/03 05:39:21;;;;;;;;;;;19.90;99.90;;;;;;4998638;28;20017;-87
2023/07/03 05:41:47;;;;;;;;;;;20.20;99.90;;;;;;4979512;28;19926;-87
2023/07/03 05:44:13;;;;;;;;;;;20.40;99.90;;;;;;4965365;28;19976;-87
2023/07/03 05:46:38;;;;;;;;;;;20.80;99.90;;;;;;4983561;28;20358;-86
2023/07/03 05:49:04;;;;;;;;;;;21.10;99.90;;;;;;4999770;28;19929;-85
2023/07/03 05:51:29;;;;;;;;;;;21.40;99.90;;;;;;4968478;28;20396;-87
2023/07/03 05:53:55;;;;;;;;;;;21.70;99.90;;;;;;4968268;28;19936;-86
2023/07/03 05:56:20;;;;;;;;;;;21.80;99.90;;;;;;4985035;28;19925;-89
2023/07/03 05:58:46;;;;;;;;;;;22.00;99.90;;;;;;4997858;28;19930;-87
2023/07/03 06:01:12;;;;;;;;;;;22.20;99.90;;;;;;4983906;28;20375;-89
2023/07/03 06:03:37;;;;;;;;;;;22.20;99.90;;;;;;4962789;28;20432;-88
2023/07/03 06:06:04;;;;;;;;;;;22.30;99.90;;;;;;4962302;28;19930;-87
2023/07/03 06:08:30;;;;;;;;;;;22.20;99.00;;;;;;4984868;28;19937;-87
2023/07/03 06:10:56;;;;;;;;;;;21.80;98.00;;;;;;4999332;28;19930;-89
2023/07/03 06:13:22;;;;;;;;;;;21.20;99.30;;;;;;4965416;28;19930;-89
2023/07/03 06:15:47;;;;;;;;;;;20.70;99.10;;;;;;4962814;28;19927;-91
2023/07/03 06:18:14;;;;;;;;;;;20.30;99.90;;;;;;4999853;28;19981;-89
2023/07/03 06:20:39;;;;;;;;;;;20.10;99.90;;;;;;4992345;28;19934;-89
2023/07/03 06:23:05;;;;;;;;;;;19.90;99.90;;;;;;4982477;28;20351;-87
2023/07/03 06:25:31;;;;;;;;;;;19.70;99.90;;;;;;5007089;28;19952;-90
2023/07/03 06:27:56;;;;;;;;;;;19.80;99.90;;;;;;4989929;28;19961;-88
2023/07/03 06:30:22;;;;;;;;;;;20.10;99.90;;;;;;4983941;28;19926;-90
2023/07/03 06:32:47;;;;;;;;;;;20.50;99.90;;;;;;4967650;28;19930;-91
2023/07/03 06:35:14;;;;;;;;;;;20.70;99.90;;;;;;4998824;28;19933;-88
2023/07/03 06:37:39;;;;;;;;;;;21.00;99.90;;;;;;4982196;28;19957;-93
2023/07/03 06:40:09;;;;;;;;;;;21.10;99.90;;;;;;5000325;28;20321;-91
2023/07/03 06:42:35;;;;;;;;;;;21.20;99.90;;;;;;5000843;28;19925;-90
2023/07/03 06:45:00;;;;;;;;;;;21.10;99.90;;;;;;4972785;28;20297;-90
2023/07/03 06:47:26;;;;;;;;;;;20.90;99.90;;;;;;4983181;28;19930;-88
2023/07/03 06:49:52;;;;;;;;;;;20.70;99.90;;;;;;4963480;28;19957;-87
2023/07/03 06:52:17;;;;;;;;;;;20.30;99.90;;;;;;4964064;28;19933;-88
2023/07/03 06:54:45;;;;;;;;;;;19.80;99.90;;;;;;4993371;28;19929;-87
2023/07/03 06:57:11;;;;;;;;;;;19.40;99.90;;;;;;4969199;28;19926;-87
2023/07/03 06:59:36;;;;;;;;;;;18.90;99.90;;;;;;4998612;28;20727;-87
2023/07/03 07:02:03;;;;;;;;;;;18.60;99.90;;;;;;4999277;28;20494;-89
2023/07/03 07:04:29;;;;;;;;;;;18.90;99.90;;;;;;4983678;28;19925;-89
2023/07/03 07:06:55;;;;;;;;;;;19.60;99.90;;;;;;4964627;28;19985;-87
2023/07/03 07:09:21;;;;;;;;;;;20.40;99.90;;;;;;4989995;28;19936;-87
2023/07/03 07:11:47;;;;;;;;;;;20.80;99.90;;;;;;4992472;28;19933;-89
2023/07/03 07:14:13;;;;;;;;;;;20.60;99.90;;;;;;4978018;28;19926;-88
2023/07/03 07:16:40;;;;;;;;;;;20.10;99.90;;;;;;4992778;28;19965;-85
2023/07/03 07:19:09;;;;;;;;;;;19.70;99.90;;;;;;4991717;28;19949;-91
2023/07/03 07:21:37;;;;;;;;;;;19.30;99.90;;;;;;4975383;28;19926;-87
2023/07/03 07:24:14;;;;;;;;;;;19.00;99.90;;;;;;4976029;28;19934;-87
2023/07/03 07:26:39;;;;;;;;;;;19.40;99.90;;;;;;5006983;28;19934;-85
2023/07/03 07:29:05;;;;;;;;;;;20.00;99.90;;;;;;4977743;28;19933;-84
2023/07/03 07:31:31;;;;;;;;;;;20.80;99.90;;;;;;4988785;28;20313;-84
2023/07/03 07:33:57;;;;;;;;;;;21.50;99.90;;;;;;4989540;28;19932;-84
2023/07/03 07:36:25;;;;;;;;;;;21.80;99.90;;;;;;4990278;28;20390;-85
2023/07/03 07:38:51;;;;;;;;;;;22.20;97.50;;;;;;4992248;28;19989;-84
2023/07/03 07:41:16;;;;;;;;;;;22.40;98.50;;;;;;4975152;28;20020;-84
2023/07/03 07:43:42;;;;;;;;;;;22.20;98.40;;;;;;4990752;28;19926;-89
2023/07/03 07:46:07;;;;;;;;;;;22.20;96.10;;;;;;4991285;28;20306;-88
2023/07/03 07:48:33;;;;;;;;;;;21.90;93.70;;;;;;4976526;28;19951;-88
2023/07/03 07:50:59;;;;;;;;;;;21.80;94.00;;;;;;4976310;28;19933;-86
2023/07/03 07:53:26;;;;;;;;;;;21.90;94.70;;;;;;4990692;28;19933;-87
2023/07/03 07:55:52;;;;;;;;;;;22.20;94.90;;;;;;5007187;28;19937;-88
2023/07/03 07:58:17;;;;;;;;;;;22.50;95.60;;;;;;4959102;28;19965;-84
2023/07/03 08:00:43;;;;;;;;;;;22.50;92.20;;;;;;4975092;28;19997;-86
2023/07/03 08:03:08;;;;;;;;;;;22.50;92.30;;;;;;4990613;28;19925;-86
2023/07/03 08:05:35;;;;;;;;;;;22.70;93.10;;;;;;4959690;28;19937;-85
2023/07/03 08:08:01;;;;;;;;;;;23.00;90.70;;;;;;4981447;28;19926;-88
2023/07/03 08:10:26;;;;;;;;;;;23.00;91.60;;;;;;4997237;28;19925;-87
2023/07/03 08:12:52;;;;;;;;;;;22.90;91.90;;;;;;4980005;28;19930;-86
2023/07/03 08:15:18;;;;;;;;;;;22.60;91.60;;;;;;4992736;28;19926;-86
2023/07/03 08:17:43;;;;;;;;;;;22.50;93.30;;;;;;4977141;28;19937;-87
2023/07/03 08:20:11;;;;;;;;;;;22.80;90.00;;;;;;4981170;28;20121;-87
2023/07/03 08:22:40;;;;;;;;;;;22.90;91.50;;;;;;4961150;28;19956;-83
2023/07/03 08:25:06;;;;;;;;;;;23.20;90.50;;;;;;4963779;28;19929;-86
2023/07/03 08:27:32;;;;;;;;;;;23.20;88.90;;;;;;4999247;28;19981;-88
2023/07/03 08:29:57;;;;;;;;;;;23.20;90.60;;;;;;4982163;28;19925;-87
2023/07/03 08:32:23;;;;;;;;;;;23.20;90.10;;;;;;4996981;28;19932;-87
2023/07/03 08:34:49;;;;;;;;;;;23.10;85.90;;;;;;5010675;28;19988;-86
2023/07/03 08:37:15;;;;;;;;;;;22.90;91.20;;;;;;4979379;28;19930;-84
2023/07/03 08:39:41;;;;;;;;;;;22.50;91.00;;;;;;4995420;28;19932;-85
2023/07/03 08:42:12;;;;;;;;;;;22.20;91.00;;;;;;4967207;28;20454;-85
2023/07/03 08:44:38;;;;;;;;;;;21.90;91.40;;;;;;4979506;28;20024;-86
2023/07/03 08:47:04;;;;;;;;;;;22.00;91.40;;;;;;4973401;28;20432;-85
2023/07/03 08:49:31;;;;;;;;;;;22.20;92.10;;;;;;4975174;28;19983;-85
2023/07/03 08:51:59;;;;;;;;;;;22.20;90.80;;;;;;4980175;28;19996;-87
2023/07/03 08:54:31;;;;;;;;;;;22.10;88.60;;;;;;4993737;28;19930;-86
2023/07/03 08:56:57;;;;;;;;;;;22.00;88.70;;;;;;4991666;28;19972;-87
2023/07/03 08:59:23;;;;;;;;;;;21.80;90.00;;;;;;4997393;28;19933;-87
2023/07/03 09:01:56;;;;;;;;;;;21.60;89.00;;;;;;4996974;28;19930;-86
2023/07/03 09:04:31;;;;;;;;;;;21.40;91.50;;;;;;4990010;28;19926;-86
2023/07/03 09:07:02;;;;;;;;;;;21.20;89.40;;;;;;4980218;28;19937;-86
2023/07/03 09:09:32;;;;;;;;;;;21.00;91.80;;;;;;4978791;28;19972;-85
2023/07/03 09:12:11;;;;;;;;;;;20.80;91.10;;;;;;4971743;28;19981;-87
2023/07/03 09:14:40;;;;;;;;;;;20.70;91.30;;;;;;4996320;28;19933;-86
2023/07/03 09:17:07;;;;;;;;;;;20.60;92.00;;;;;;5006594;28;19938;-86
2023/07/03 09:19:33;;;;;;;;;;;20.50;92.20;;;;;;4994487;28;19930;-86
2023/07/03 09:22:02;;;;;;;;;;;20.40;92.60;;;;;;4997477;28;19937;-86
2023/07/03 09:24:30;;;;;;;;;;;20.30;92.10;;;;;;4994718;28;19969;-85
2023/07/03 09:27:03;;;;;;;;;;;20.30;93.20;;;;;;4995760;28;20001;-87
2023/07/03 09:29:30;;;;;;;;;;;20.30;93.10;;;;;;4996982;28;20006;-87
2023/07/03 09:31:56;;;;;;;;;;;20.60;93.80;;;;;;4980313;28;19980;-86
2023/07/03 09:34:21;;;;;;;;;;;20.90;93.90;;;;;;4980721;28;19926;-88
2023/07/03 09:36:57;;;;;;;;;;;21.40;92.70;;;;;;4998378;28;19926;-85
2023/07/03 09:39:23;;;;;;;;;;;21.60;92.40;;;;;;4999103;28;19943;-90
2023/07/03 09:41:49;;;;;;;;;;;21.30;92.00;;;;;;4967879;28;19926;-89
2023/07/03 09:44:16;;;;;;;;;;;21.10;92.40;;;;;;4998180;28;19981;-85
2023/07/03 09:46:43;;;;;;;;;;;20.90;92.90;;;;;;4994431;28;19957;-87
2023/07/03 09:49:16;;;;;;;;;;;20.80;91.80;;;;;;4993021;28;19933;-88
2023/07/03 09:51:42;;;;;;;;;;;20.90;92.50;;;;;;4976259;28;20340;-85
2023/07/03 09:54:16;;;;;;;;;;;21.30;93.20;;;;;;4976762;28;19932;-86
2023/07/03 09:56:41;;;;;;;;;;;21.60;91.20;;;;;;4993190;28;19926;-83
2023/07/03 09:59:09;;;;;;;;;;;21.60;87.60;;;;;;4995301;28;19937;-86
2023/07/03 10:01:38;;;;;;;;;;;21.50;87.40;;;;;;4962314;28;20469;-88
2023/07/03 10:04:05;;;;;;;;;;;21.30;86.10;;;;;;4973515;28;19941;-88
2023/07/03 10:06:31;;;;;;;;;;;21.40;89.00;;;;;;4979374;28;19961;-87
2023/07/03 10:08:59;;;;;;;;;;;21.80;91.30;;;;;;4996193;28;19937;-87
2023/07/03 10:11:29;;;;;;;;;;;22.10;88.80;;;;;;4980510;28;19972;-88
2023/07/03 10:13:55;;;;;;;;;;;22.30;85.20;;;;;;4996891;28;19949;-88
2023/07/03 10:16:22;;;;;;;;;;;22.50;81.00;;;;;;4980439;28;19981;-87
2023/07/03 10:18:51;;;;;;;;;;;22.70;84.30;;;;;;4995211;28;19932;-90
2023/07/03 10:21:19;;;;;;;;;;;22.70;76.30;;;;;;4995228;28;19992;-86
2023/07/03 10:23:44;;;;;;;;;;;22.60;76.80;;;;;;4979389;28;20775;-88
2023/07/03 10:26:13;;;;;;;;;;;22.30;75.70;;;;;;4997140;28;19941;-89
2023/07/03 10:28:45;;;;;;;;;;;22.20;79.10;;;;;;4980056;28;19929;-86
2023/07/03 10:31:20;;;;;;;;;;;22.10;79.00;;;;;;4994172;28;19944;-89
2023/07/03 10:33:48;;;;;;;;;;;21.90;78.50;;;;;;4999063;28;19936;-83
2023/07/03 10:36:22;;;;;;;;;;;21.60;81.20;;;;;;4999187;28;19988;-83
2023/07/03 10:38:55;;;;;;;;;;;21.30;79.90;;;;;;5014465;28;19925;-86
2023/07/03 10:41:24;;;;;;;;;;;21.20;80.90;;;;;;4998989;28;19933;-82
2023/07/03 10:43:57;;;;;;;;;;;21.30;80.90;;;;;;4992607;28;19929;-87
2023/07/03 10:46:30;;;;;;;;;;;21.30;82.80;;;;;;4980367;28;19930;-85
2023/07/03 10:48:58;;;;;;;;;;;21.30;82.80;;;;;;4981673;28;19926;-86
2023/07/03 10:51:23;;;;;;;;;;;21.20;83.10;;;;;;4980433;28;19926;-83
2023/07/03 10:54:09;;;;;;;;;;;21.20;82.50;;;;;;4993859;28;19965;-87
2023/07/03 10:56:38;;;;;;;;;;;21.40;84.80;;;;;;5002047;28;19989;-85
2023/07/03 10:59:20;;;;;;;;;;;21.70;84.40;;;;;;4984495;28;19926;-82
2023/07/03 11:01:46;;;;;;;;;;;22.10;83.30;;;;;;4996967;28;19968;-85
2023/07/03 11:04:24;;;;;;;;;;;22.20;84.20;;;;;;4970122;28;19927;-84
2023/07/03 11:06:54;;;;;;;;;;;22.40;85.10;;;;;;4979188;28;19956;-83
2023/07/03 11:09:21;;;;;;;;;;;22.10;81.00;;;;;;4982870;28;19934;-85
2023/07/03 11:11:46;;;;;;;;;;;21.80;81.60;;;;;;4994339;28;19937;-83
2023/07/03 11:14:18;;;;;;;;;;;21.40;82.70;;;;;;4981887;28;19925;-83
2023/07/03 11:17:02;;;;;;;;;;;21.10;81.10;;;;;;4983587;28;20392;-85
2023/07/03 11:19:45;;;;;;;;;;;21.00;84.00;;;;;;4998885;28;19926;-85
2023/07/03 11:22:14;;;;;;;;;;;20.90;86.60;;;;;;4980940;28;19925;-83
2023/07/03 11:24:59;;;;;;;;;;;21.10;89.80;;;;;;4997205;28;19937;-83
2023/07/03 11:27:33;;;;;;;;;;;21.20;88.80;;;;;;4997140;28;19926;-83
2023/07/03 11:30:00;;;;;;;;;;;21.10;85.90;;;;;;4997132;28;19968;-85
2023/07/03 11:32:25;;;;;;;;;;;21.00;86.70;;;;;;4980092;28;19937;-85
2023/07/03 11:34:51;;;;;;;;;;;21.00;86.70;;;;;;4997890;28;20424;-83
2023/07/03 11:37:46;;;;;;;;;;;21.00;87.90;;;;;;4981961;28;19933;-85
2023/07/03 11:40:34;;;;;;;;;;;21.00;85.90;;;;;;4989870;28;19937;-84
2023/07/03 11:43:09;;;;;;;;;;;21.30;87.20;;;;;;4998957;28;20530;-87
2023/07/03 11:45:35;;;;;;;;;;;21.60;86.70;;;;;;4980629;28;19926;-86
2023/07/03 11:48:01;;;;;;;;;;;21.80;86.50;;;;;;4982154;28;19961;-86
2023/07/03 11:50:30;;;;;;;;;;;22.00;86.90;;;;;;4997473;28;20393;-86
2023/07/03 11:52:56;;;;;;;;;;;21.90;85.10;;;;;;4998520;28;19926;-84
2023/07/03 11:55:33;;;;;;;;;;;21.90;85.20;;;;;;5012719;28;20394;-82
2023/07/03 11:57:59;;;;;;;;;;;21.80;85.80;;;;;;4996415;28;19933;-82
2023/07/03 12:00:27;;;;;;;;;;;21.60;84.80;;;;;;4996903;28;19934;-84
2023/07/03 12:02:57;;;;;;;;;;;21.40;87.30;;;;;;4992703;28;19949;-85
2023/07/03 12:05:41;;;;;;;;;;;21.20;87.90;;;;;;4998468;28;19930;-82
2023/07/03 12:08:30;;;;;;;;;;;21.00;85.10;;;;;;4996447;28;19933;-85
2023/07/03 12:10:58;;;;;;;;;;;20.70;83.80;;;;;;4989406;28;20443;-86
2023/07/03 12:13:43;;;;;;;;;;;20.60;84.80;;;;;;4998536;28;19925;-84
2023/07/03 12:16:17;;;;;;;;;;;20.60;85.50;;;;;;4997585;28;19993;-83
2023/07/03 12:18:42;;;;;;;;;;;20.60;87.50;;;;;;5011116;28;19968;-83
2023/07/03 12:21:08;;;;;;;;;;;20.90;86.90;;;;;;4982307;28;20669;-85
2023/07/03 12:23:44;;;;;;;;;;;21.30;86.30;;;;;;4979855;28;19949;-83
2023/07/03 12:26:13;;;;;;;;;;;21.60;85.50;;;;;;4989506;28;19982;-83
2023/07/03 12:28:40;;;;;;;;;;;21.60;82.80;;;;;;4963670;28;19926;-84
2023/07/03 12:31:19;;;;;;;;;;;21.40;84.10;;;;;;4998355;28;19996;-84
2023/07/03 12:33:57;;;;;;;;;;;21.10;81.00;;;;;;4997963;28;19973;-83
2023/07/03 12:36:33;;;;;;;;;;;20.80;80.30;;;;;;4994203;28;19933;-82
2023/07/03 12:38:59;;;;;;;;;;;20.60;80.70;;;;;;4971214;28;19957;-84
2023/07/03 12:41:32;;;;;;;;;;;20.40;82.00;;;;;;4982330;28;19925;-82
2023/07/03 12:43:59;;;;;;;;;;;20.30;81.00;;;;;;4997905;28;19932;-84
2023/07/03 12:46:29;;;;;;;;;;;20.10;82.10;;;;;;5005573;28;19940;-83
2023/07/03 12:49:03;;;;;;;;;;;19.80;81.60;;;;;;4996503;28;19933;-84
2023/07/03 12:51:28;;;;;;;;;;;19.60;81.10;;;;;;5017457;28;19929;-84
2023/07/03 12:53:54;;;;;;;;;;;19.50;82.50;;;;;;5003586;28;20560;-82
2023/07/03 12:56:20;;;;;;;;;;;19.30;83.20;;;;;;5016324;28;19933;-82
2023/07/03 12:58:45;;;;;;;;;;;19.30;85.30;;;;;;5036666;28;19937;-82
2023/07/03 13:01:11;;;;;;;;;;;19.30;87.20;;;;;;5015972;28;19925;-82
2023/07/03 13:03:41;;;;;;;;;;;19.20;87.00;;;;;;5001317;28;19929;-81
2023/07/03 13:06:14;;;;;;;;;;;19.20;87.60;;;;;;5014837;28;20278;-82
2023/07/03 13:08:39;;;;;;;;;;;19.20;86.70;;;;;;5019590;28;20385;-82
2023/07/03 13:11:05;;;;;;;;;;;19.20;88.30;;;;;;5002134;28;19933;-82
2023/07/03 13:13:31;;;;;;;;;;;19.10;86.30;;;;;;4997520;28;19933;-82
2023/07/03 13:15:56;;;;;;;;;;;19.00;87.40;;;;;;5017659;28;20434;-83
2023/07/03 13:18:25;;;;;;;;;;;19.00;87.00;;;;;;5019313;28;19957;-82
2023/07/03 13:21:04;;;;;;;;;;;18.90;87.20;;;;;;5015216;28;20008;-82
2023/07/03 13:23:32;;;;;;;;;;;18.80;87.40;;;;;;5016643;28;19943;-82
2023/07/03 13:25:58;;;;;;;;;;;18.70;88.30;;;;;;5019053;28;19925;-83
2023/07/03 13:28:28;;;;;;;;;;;18.60;89.50;;;;;;5003718;28;20267;-83
2023/07/03 13:31:06;;;;;;;;;;;18.60;89.00;;;;;;5020718;28;20331;-82
2023/07/03 13:33:34;;;;;;;;;;;18.50;89.00;;;;;;5017349;28;19944;-84
2023/07/03 13:36:18;;;;;;;;;;;18.40;89.60;;;;;;5031370;28;19934;-84
2023/07/03 13:38:43;;;;;;;;;;;18.30;89.60;;;;;;5018754;28;19947;-82
2023/07/03 13:41:09;;;;;;;;;;;18.30;90.20;;;;;;5016938;28;19992;-82
2023/07/03 13:43:34;;;;;;;;;;;18.40;90.20;;;;;;5001398;28;19971;-84
2023/07/03 13:46:00;;;;;;;;;;;18.30;90.30;;;;;;5017238;28;19929;-84
2023/07/03 13:48:26;;;;;;;;;;;18.30;90.30;;;;;;5036151;28;19932;-85
2023/07/03 13:50:53;;;;;;;;;;;18.30;90.40;;;;;;5034833;28;19960;-85
2023/07/03 13:53:20;;;;;;;;;;;18.40;90.90;;;;;;5019462;28;19929;-84
2023/07/03 13:55:45;;;;;;;;;;;18.40;91.20;;;;;;5019522;28;19929;-85
2023/07/03 13:58:11;;;;;;;;;;;18.30;91.30;;;;;;5014303;28;19940;-82
2023/07/03 14:00:36;;;;;;;;;;;18.20;91.30;;;;;;5001999;28;20305;-85
2023/07/03 14:03:02;;;;;;;;;;;18.20;92.00;;;;;;5015225;28;19925;-83
2023/07/03 14:05:28;;;;;;;;;;;18.10;92.30;;;;;;5002375;28;19925;-83
2023/07/03 14:07:54;;;;;;;;;;;18.10;93.30;;;;;;5002692;28;19983;-83
2023/07/03 14:10:19;;;;;;;;;;;17.90;93.30;;;;;;5003636;28;20019;-83
2023/07/03 14:12:45;;;;;;;;;;;17.60;95.10;;;;;;5006009;28;20388;-84
2023/07/03 14:15:15;;;;;;;;;;;17.50;96.40;;;;;;5006701;28;19936;-82
2023/07/03 14:17:41;;;;;;;;;;;17.20;97.10;;;;;;5007392;28;19925;-82
2023/07/03 14:20:10;;;;;;;;;;;17.10;97.60;;;;;;5022047;28;19925;-82